createdAt,value
2023-03-13T05:16:04.009Z,96.23
2023-03-13T05:17:04.900Z,96.14
2023-03-13T05:18:03.909Z,96.03
2023-03-13T05:19:03.912Z,96.03
2023-03-13T05:20:03.920Z,95.93
2023-03-13T05:21:03.875Z,95.93
2023-03-13T05:22:03.897Z,95.93
2023-03-13T05:23:03.890Z,95.83
2023-03-13T05:24:04.310Z,95.83
2023-03-13T05:25:05.258Z,95.73
2023-03-13T05:26:03.847Z,95.73
2023-03-13T05:27:03.811Z,95.73
2023-03-13T05:28:03.847Z,95.73
2023-03-13T05:29:03.826Z,95.62
2023-03-13T05:30:03.805Z,95.73
2023-03-13T05:31:04.180Z,95.73
2023-03-13T05:32:03.849Z,95.62
2023-03-13T05:33:04.197Z,95.62
2023-03-13T05:34:03.911Z,95.52
2023-03-13T05:35:05.195Z,95.52
2023-03-13T05:36:04.536Z,95.42
2023-03-13T05:37:03.704Z,95.42
2023-03-13T05:38:03.716Z,95.42
2023-03-13T05:39:03.675Z,95.42
2023-03-13T05:40:03.701Z,95.42
2023-03-13T05:41:03.709Z,95.42
2023-03-13T05:42:03.696Z,95.42
2023-03-13T05:43:03.656Z,95.42
2023-03-13T05:44:03.622Z,95.42
2023-03-13T05:45:03.734Z,95.42
2023-03-13T05:46:03.619Z,95.52
2023-03-13T05:47:04.177Z,95.42
2023-03-13T05:48:03.628Z,95.42
2023-03-13T05:49:03.596Z,95.42
2023-03-13T05:50:03.556Z,95.42
2023-03-13T05:51:03.623Z,95.42
2023-03-13T05:52:03.605Z,95.42
2023-03-13T05:53:03.560Z,95.42
2023-03-13T05:54:03.697Z,95.42
2023-03-13T05:55:03.540Z,95.42
2023-03-13T05:56:03.498Z,95.42
2023-03-13T05:57:05.052Z,95.42
2023-03-13T05:58:03.496Z,95.32
2023-03-13T05:59:04.407Z,95.28
2023-03-13T06:00:03.446Z,95.28
2023-03-13T06:01:03.451Z,95.17
2023-03-13T06:02:05.518Z,95.17
2023-03-13T06:03:03.476Z,95.07
2023-03-13T06:04:03.534Z,95.07
2023-03-13T06:05:03.488Z,95.07
2023-03-13T06:06:03.385Z,94.97
2023-03-13T06:07:03.369Z,94.97
2023-03-13T06:08:03.606Z,94.97
2023-03-13T06:09:03.359Z,94.87
2023-03-13T06:10:04.168Z,94.87
2023-03-13T06:11:03.648Z,94.87
2023-03-13T06:12:03.323Z,94.87
2023-03-13T06:13:18.680Z,94.76
2023-03-13T06:14:04.347Z,94.66
2023-03-13T06:15:03.278Z,94.66
2023-03-13T06:16:03.320Z,94.56
2023-03-13T06:17:03.237Z,94.46
2023-03-13T06:18:03.272Z,94.35
2023-03-13T06:19:03.222Z,94.35
2023-03-13T06:20:03.223Z,94.26
2023-03-13T06:21:03.258Z,94.26
2023-03-13T06:22:03.237Z,94.15
2023-03-13T06:23:03.199Z,94.15
2023-03-13T06:24:03.176Z,94.05
2023-03-13T06:25:03.174Z,94.05
2023-03-13T06:26:03.140Z,94.05
2023-03-13T06:27:03.126Z,93.95
2023-03-13T06:28:03.511Z,93.95
2023-03-13T06:29:03.142Z,93.80
2023-03-13T06:30:03.143Z,93.80
2023-03-13T06:31:03.122Z,93.70
2023-03-13T06:32:03.271Z,93.80
2023-03-13T06:33:04.740Z,93.90
2023-03-13T06:34:03.092Z,93.90
2023-03-13T06:35:04.019Z,93.80
2023-03-13T06:36:03.089Z,93.45
2023-03-13T06:37:03.092Z,93.05
2023-03-13T06:38:03.017Z,92.74
2023-03-13T06:39:03.002Z,92.54
2023-03-13T06:40:03.006Z,92.33
2023-03-13T06:41:02.980Z,92.13
2023-03-13T06:42:02.974Z,92.03
2023-03-13T06:43:02.939Z,91.93
2023-03-13T06:44:02.932Z,91.83
2023-03-13T06:45:02.925Z,91.83
2023-03-13T06:46:02.962Z,91.83
2023-03-13T06:47:03.021Z,91.72
2023-03-13T06:48:02.890Z,91.72
2023-03-13T06:49:02.877Z,91.72
2023-03-13T06:50:02.864Z,91.72
2023-03-13T06:51:02.902Z,91.72
2023-03-13T06:52:02.871Z,91.72
2023-03-13T06:53:02.843Z,91.62
2023-03-13T06:54:02.931Z,91.62
2023-03-13T06:55:02.822Z,91.42
2023-03-13T06:56:02.810Z,91.31
2023-03-13T06:57:02.820Z,91.22
2023-03-13T06:58:02.791Z,91.01
2023-03-13T06:59:02.812Z,90.91
2023-03-13T07:00:02.767Z,90.81
2023-03-13T07:01:02.961Z,90.60
2023-03-13T07:02:02.755Z,90.46
2023-03-13T07:03:03.526Z,90.36
2023-03-13T07:04:02.788Z,90.25
2023-03-13T07:05:04.160Z,90.25
2023-03-13T07:06:02.713Z,90.16
2023-03-13T07:07:02.689Z,90.05
2023-03-13T07:08:02.690Z,89.85
2023-03-13T07:09:03.750Z,89.75
2023-03-13T07:10:02.657Z,89.64
2023-03-13T07:11:02.664Z,89.44
2023-03-13T07:12:02.749Z,89.34
2023-03-13T07:13:02.610Z,89.34
2023-03-13T07:14:15.927Z,89.14
2023-03-13T07:15:03.609Z,89.14
2023-03-13T07:16:02.609Z,89.03
2023-03-13T07:17:02.758Z,89.03
2023-03-13T07:18:02.560Z,88.83
2023-03-13T07:19:02.582Z,88.73
2023-03-13T07:20:02.662Z,88.73
2023-03-13T07:21:02.514Z,88.48
2023-03-13T07:22:02.535Z,88.39
2023-03-13T07:23:02.685Z,88.39
2023-03-13T07:24:02.496Z,88.39
2023-03-13T07:25:02.525Z,88.48
2023-03-13T07:26:03.462Z,88.59
2023-03-13T07:27:07.568Z,88.79
2023-03-13T07:28:04.307Z,88.79
2023-03-13T07:29:02.454Z,88.24
2023-03-13T07:30:02.470Z,87.73
2023-03-13T07:31:02.446Z,87.43
2023-03-13T07:32:02.471Z,87.32
2023-03-13T07:33:02.519Z,87.12
2023-03-13T07:34:02.449Z,86.77
2023-03-13T07:35:02.374Z,86.71
2023-03-13T07:36:02.386Z,86.51
2023-03-13T07:37:02.358Z,86.41
2023-03-13T07:38:02.341Z,86.31
2023-03-13T07:39:03.132Z,86.21
2023-03-13T07:40:02.340Z,86.21
2023-03-13T07:41:03.771Z,86.31
2023-03-13T07:42:02.293Z,86.41
2023-03-13T07:43:02.280Z,86.41
2023-03-13T07:44:03.719Z,86.41
2023-03-13T07:45:03.366Z,86.41
2023-03-13T07:46:02.315Z,86.41
2023-03-13T07:47:02.229Z,86.51
2023-03-13T07:48:02.231Z,86.51
2023-03-13T07:49:02.224Z,86.51
2023-03-13T07:50:03.800Z,86.51
2023-03-13T07:51:02.199Z,86.51
2023-03-13T07:52:02.260Z,86.61
2023-03-13T07:53:03.690Z,86.55
2023-03-13T07:54:02.379Z,86.55
2023-03-13T07:55:02.291Z,86.55
2023-03-13T07:56:02.154Z,86.55
2023-03-13T07:57:02.160Z,86.45
2023-03-13T07:58:02.138Z,86.55
2023-03-13T07:59:02.128Z,86.35
2023-03-13T08:00:02.090Z,86.35
2023-03-13T08:01:02.171Z,86.35
2023-03-13T08:02:02.203Z,86.25
2023-03-13T08:03:02.173Z,86.25
2023-03-13T08:04:02.100Z,86.15
2023-03-13T08:05:02.050Z,86.04
2023-03-13T08:06:02.420Z,85.94
2023-03-13T08:07:02.017Z,85.74
2023-03-13T08:08:02.011Z,85.74
2023-03-13T08:09:02.038Z,85.64
2023-03-13T08:10:01.990Z,85.64
2023-03-13T08:11:01.986Z,85.49
2023-03-13T08:12:01.978Z,85.29
2023-03-13T08:13:03.416Z,84.88
2023-03-13T08:14:01.944Z,84.68
2023-03-13T08:15:02.435Z,84.48
2023-03-13T08:16:02.084Z,84.38
2023-03-13T08:17:01.958Z,84.28
2023-03-13T08:18:01.910Z,84.07
2023-03-13T08:19:01.876Z,83.87
2023-03-13T08:20:01.878Z,83.67
2023-03-13T08:21:01.861Z,83.56
2023-03-13T08:22:01.878Z,83.42
2023-03-13T08:23:03.302Z,83.32
2023-03-13T08:24:01.926Z,83.73
2023-03-13T08:25:01.805Z,83.93
2023-03-13T08:26:02.861Z,83.48
2023-03-13T08:27:03.253Z,83.18
2023-03-13T08:28:02.598Z,82.47
2023-03-13T08:29:02.285Z,82.03
2023-03-13T08:30:01.753Z,81.82
2023-03-13T08:31:01.864Z,81.72
2023-03-13T08:32:01.723Z,81.62
2023-03-13T08:33:01.768Z,81.52
2023-03-13T08:34:01.728Z,81.52
2023-03-13T08:35:01.678Z,81.52
2023-03-13T08:36:01.699Z,81.41
2023-03-13T08:37:01.659Z,81.41
2023-03-13T08:38:01.662Z,81.31
2023-03-13T08:39:01.655Z,81.11
2023-03-13T08:40:01.661Z,81.11
2023-03-13T08:41:01.609Z,81.31
2023-03-13T08:42:01.671Z,81.31
2023-03-13T08:43:01.621Z,81.11
2023-03-13T08:44:01.643Z,81.01
2023-03-13T08:45:01.578Z,81.11
2023-03-13T08:46:01.650Z,81.21
2023-03-13T08:47:01.551Z,81.41
2023-03-13T08:48:01.579Z,81.62
2023-03-13T08:49:01.515Z,81.72
2023-03-13T08:50:01.517Z,81.86
2023-03-13T08:51:01.855Z,81.86
2023-03-13T08:52:01.619Z,81.86
2023-03-13T08:53:02.475Z,81.96
2023-03-13T08:54:01.909Z,82.17
2023-03-13T08:55:01.459Z,82.17
2023-03-13T08:56:01.459Z,82.17
2023-03-13T08:57:01.450Z,82.26
2023-03-13T08:58:01.472Z,82.23
2023-03-13T08:59:01.503Z,82.47
2023-03-13T09:00:01.402Z,82.43
2023-03-13T09:01:01.396Z,82.43
2023-03-13T09:02:02.946Z,82.53
2023-03-13T09:03:01.383Z,82.53
2023-03-13T09:04:04.130Z,82.33
2023-03-13T09:05:01.652Z,82.33
2023-03-13T09:06:01.373Z,82.33
2023-03-13T09:07:01.357Z,82.23
2023-03-13T09:08:01.335Z,82.23
2023-03-13T09:09:01.314Z,82.23
2023-03-13T09:10:02.300Z,82.33
2023-03-13T09:11:01.304Z,82.33
2023-03-13T09:12:01.293Z,82.43
2023-03-13T09:13:01.300Z,82.33
2023-03-13T09:14:02.722Z,82.33
2023-03-13T09:15:01.426Z,82.33
2023-03-13T09:16:01.324Z,82.43
2023-03-13T09:17:01.240Z,82.43
2023-03-13T09:18:01.308Z,82.53
2023-03-13T09:19:01.267Z,82.73
2023-03-13T09:20:01.479Z,82.70
2023-03-13T09:21:01.177Z,82.70
2023-03-13T09:22:01.188Z,82.90
2023-03-13T09:23:01.159Z,83.04
2023-03-13T09:24:01.516Z,82.94
2023-03-13T09:25:01.132Z,82.94
2023-03-13T09:26:01.122Z,83.04
2023-03-13T09:27:01.847Z,83.14
2023-03-13T09:28:01.090Z,83.45
2023-03-13T09:29:01.085Z,83.65
2023-03-13T09:30:01.113Z,83.95
2023-03-13T09:31:01.084Z,84.16
2023-03-13T09:32:01.082Z,84.46
2023-03-13T09:33:02.701Z,84.56
2023-03-13T09:34:02.487Z,84.66
2023-03-13T09:35:01.996Z,84.77
2023-03-13T09:36:01.088Z,84.87
2023-03-13T09:37:01.567Z,84.97
2023-03-13T09:38:00.994Z,85.47
2023-03-13T09:39:00.965Z,85.88
2023-03-13T09:40:00.968Z,86.49
2023-03-13T09:41:06.162Z,87.14
2023-03-13T09:42:01.953Z,87.55
2023-03-13T09:43:00.921Z,87.95
2023-03-13T09:44:01.173Z,88.26
2023-03-13T09:45:00.932Z,88.46
2023-03-13T09:46:01.586Z,88.67
2023-03-13T09:47:00.875Z,88.76
2023-03-13T09:48:00.872Z,88.76
2023-03-13T09:49:00.860Z,88.76
2023-03-13T09:50:00.879Z,88.87
2023-03-13T09:51:00.853Z,89.01
2023-03-13T09:52:00.913Z,89.01
2023-03-13T09:53:00.920Z,89.01
2023-03-13T09:54:01.155Z,89.01
2023-03-13T09:55:00.825Z,89.01
2023-03-13T09:56:00.786Z,89.11
2023-03-13T09:57:01.769Z,89.11
2023-03-13T09:58:00.759Z,89.11
2023-03-13T09:59:00.749Z,89.11
2023-03-13T10:00:00.742Z,89.11
2023-03-13T10:01:00.757Z,89.11
2023-03-13T10:02:00.771Z,89.11
2023-03-13T10:03:00.751Z,89.22
2023-03-13T10:04:00.909Z,88.97
2023-03-13T10:05:00.685Z,88.87
2023-03-13T10:06:00.744Z,88.46
2023-03-13T10:07:00.672Z,88.12
2023-03-13T10:08:00.684Z,87.71
2023-03-13T10:09:02.112Z,87.40
2023-03-13T10:10:00.606Z,87.30
2023-03-13T10:11:00.617Z,86.96
2023-03-13T10:12:00.639Z,86.76
2023-03-13T10:13:00.622Z,86.65
2023-03-13T10:14:00.616Z,86.35
2023-03-13T10:15:00.558Z,85.70
2023-03-13T10:16:01.411Z,84.89
2023-03-13T10:17:00.538Z,84.78
2023-03-13T10:18:00.548Z,84.78
2023-03-13T10:19:00.540Z,84.64
2023-03-13T10:20:00.523Z,84.44
2023-03-13T10:21:00.500Z,84.14
2023-03-13T10:22:00.473Z,83.53
2023-03-13T10:23:01.438Z,83.33
2023-03-13T10:24:00.478Z,83.43
2023-03-13T10:25:00.468Z,83.43
2023-03-13T10:26:00.429Z,83.23
2023-03-13T10:27:01.377Z,83.03
2023-03-13T10:28:00.414Z,82.92
2023-03-13T10:29:00.425Z,82.62
2023-03-13T10:30:00.418Z,82.48
2023-03-13T10:31:00.416Z,81.97
2023-03-13T10:32:00.486Z,81.77
2023-03-13T10:33:00.409Z,81.77
2023-03-13T10:34:00.368Z,81.37
2023-03-13T10:35:00.364Z,81.16
2023-03-13T10:36:01.323Z,80.52
2023-03-13T10:37:00.314Z,80.52
2023-03-13T10:38:00.296Z,80.11
2023-03-13T10:39:01.263Z,79.30
2023-03-13T10:40:00.480Z,78.75
2023-03-13T10:41:00.277Z,78.75
2023-03-13T10:42:00.273Z,78.96
2023-03-13T10:43:00.278Z,78.75
2023-03-13T10:44:00.294Z,78.75
2023-03-13T10:45:01.247Z,79.06
2023-03-13T10:46:00.212Z,78.66
2023-03-13T10:47:00.272Z,78.35
2023-03-13T10:48:00.199Z,78.45
2023-03-13T10:49:00.219Z,78.15
2023-03-13T10:50:00.171Z,78.25
2023-03-13T10:51:02.250Z,78.05
2023-03-13T10:52:00.181Z,78.15
2023-03-13T10:53:00.144Z,78.35
2023-03-13T10:54:00.162Z,78.25
2023-03-13T10:55:00.281Z,78.15
2023-03-13T10:56:00.122Z,78.15
2023-03-13T10:57:00.097Z,78.05
2023-03-13T10:58:00.107Z,77.50
2023-03-13T10:59:00.103Z,76.79
2023-03-13T11:00:01.190Z,76.39
2023-03-13T11:01:00.078Z,76.39
2023-03-13T11:02:00.064Z,76.29
2023-03-13T11:03:00.122Z,76.39
2023-03-13T11:04:00.087Z,76.56
2023-03-13T11:05:00.001Z,76.05
2023-03-13T11:06:00.044Z,75.24
2023-03-13T11:06:59.998Z,75.04
2023-03-13T11:07:59.965Z,75.24
2023-03-13T11:08:59.948Z,75.34
2023-03-13T11:09:59.948Z,75.04
2023-03-13T11:10:59.935Z,74.94
2023-03-13T11:11:59.945Z,74.74
2023-03-13T11:12:59.909Z,74.74
2023-03-13T11:13:59.899Z,74.63
2023-03-13T11:14:59.975Z,74.63
2023-03-13T11:15:59.929Z,74.94
2023-03-13T11:16:59.888Z,74.74
2023-03-13T11:17:59.904Z,74.74
2023-03-13T11:18:59.836Z,74.63
2023-03-13T11:19:59.818Z,74.43
2023-03-13T11:21:12.154Z,74.63
2023-03-13T11:22:02.367Z,74.63
2023-03-13T11:22:59.794Z,74.63
2023-03-13T11:23:59.859Z,74.33
2023-03-13T11:24:59.797Z,74.19
2023-03-13T11:26:00.581Z,74.13
2023-03-13T11:27:04.790Z,74.33
2023-03-13T11:28:00.736Z,74.19
2023-03-13T11:28:59.730Z,73.99
2023-03-13T11:29:59.797Z,73.90
2023-03-13T11:30:59.724Z,73.59
2023-03-13T11:31:59.811Z,72.38
2023-03-13T11:32:59.721Z,72.17
2023-03-13T11:33:59.743Z,72.17
2023-03-13T11:34:59.664Z,71.57
2023-03-13T11:35:59.778Z,71.37
2023-03-13T11:37:00.584Z,70.62
2023-03-13T11:37:59.604Z,70.73
2023-03-13T11:38:59.605Z,70.93
2023-03-13T11:39:59.603Z,70.62
2023-03-13T11:40:59.631Z,69.42
2023-03-13T11:41:59.585Z,69.31
2023-03-13T11:42:59.565Z,68.91
2023-03-13T11:44:00.241Z,68.30
2023-03-13T11:45:00.523Z,68.20
2023-03-13T11:45:59.699Z,68.60
2023-03-13T11:46:59.563Z,67.09
2023-03-13T11:47:59.502Z,67.90
2023-03-13T11:48:59.516Z,68.37
2023-03-13T11:49:59.524Z,68.07
2023-03-13T11:50:59.512Z,68.07
2023-03-13T11:51:59.468Z,67.53
2023-03-13T11:52:59.477Z,67.43
2023-03-13T11:53:59.457Z,67.83
2023-03-13T11:54:59.460Z,67.43
2023-03-13T11:55:59.452Z,67.02
2023-03-13T11:56:59.425Z,66.93
2023-03-13T11:57:59.391Z,67.02
2023-03-13T11:58:59.403Z,66.93
2023-03-13T11:59:59.375Z,67.16
2023-03-13T12:00:59.467Z,67.53
2023-03-13T12:01:59.431Z,67.83
2023-03-13T12:02:59.362Z,67.63
2023-03-13T12:03:59.443Z,67.53
2023-03-13T12:04:59.374Z,67.63
2023-03-13T12:05:59.306Z,67.23
2023-03-13T12:07:00.693Z,67.33
2023-03-13T12:07:59.279Z,67.33
2023-03-13T12:08:59.302Z,67.53
2023-03-13T12:09:59.283Z,67.23
2023-03-13T12:10:59.290Z,67.02
2023-03-13T12:12:00.762Z,66.93
2023-03-13T12:12:59.240Z,66.93
2023-03-13T12:13:59.254Z,66.02
2023-03-13T12:14:59.219Z,65.81
2023-03-13T12:15:59.236Z,65.81
2023-03-13T12:16:59.208Z,66.25
2023-03-13T12:17:59.218Z,66.55
2023-03-13T12:18:59.181Z,66.96
2023-03-13T12:19:59.172Z,67.46
2023-03-13T12:20:59.137Z,67.97
2023-03-13T12:21:59.228Z,68.07
2023-03-13T12:23:00.066Z,68.37
2023-03-13T12:23:59.210Z,68.60
2023-03-13T12:24:59.138Z,68.77
2023-03-13T12:26:00.096Z,68.17
2023-03-13T12:26:59.073Z,67.97
2023-03-13T12:27:59.154Z,67.56
2023-03-13T12:28:59.045Z,67.97
2023-03-13T12:29:59.044Z,68.47
2023-03-13T12:30:59.084Z,68.47
2023-03-13T12:31:59.091Z,68.77
2023-03-13T12:32:59.088Z,68.77
2023-03-13T12:33:59.013Z,68.87
2023-03-13T12:34:58.978Z,68.87
2023-03-13T12:35:59.943Z,69.08
2023-03-13T12:36:58.980Z,69.18
2023-03-13T12:37:58.981Z,68.98
2023-03-13T12:38:58.955Z,68.77
2023-03-13T12:39:58.930Z,69.18
2023-03-13T12:40:58.918Z,69.48
2023-03-13T12:41:58.903Z,69.89
2023-03-13T12:42:59.982Z,70.09
2023-03-13T12:44:08.729Z,70.19
2023-03-13T12:44:59.897Z,70.29
2023-03-13T12:45:59.087Z,69.95
2023-03-13T12:46:58.857Z,69.01
2023-03-13T12:47:58.900Z,69.21
2023-03-13T12:48:58.846Z,68.91
2023-03-13T12:49:58.818Z,68.61
2023-03-13T12:50:58.802Z,67.40
2023-03-13T12:51:58.805Z,67.73
2023-03-13T12:52:58.778Z,68.33
2023-03-13T12:53:58.799Z,68.64
2023-03-13T12:54:58.764Z,68.54
2023-03-13T12:55:58.747Z,67.23
2023-03-13T12:56:58.765Z,66.82
2023-03-13T12:57:58.806Z,66.39
2023-03-13T12:58:58.723Z,66.25
2023-03-13T12:59:58.708Z,65.22
2023-03-13T13:00:58.718Z,64.61
2023-03-13T13:01:58.669Z,64.54
2023-03-13T13:02:58.709Z,64.24
2023-03-13T13:03:58.696Z,63.93
2023-03-13T13:04:58.826Z,63.73
2023-03-13T13:05:58.634Z,63.33
2023-03-13T13:06:58.627Z,63.60
2023-03-13T13:07:58.605Z,63.81
2023-03-13T13:08:58.653Z,63.53
2023-03-13T13:09:58.595Z,63.64
2023-03-13T13:10:58.577Z,64.17
2023-03-13T13:11:58.567Z,64.27
2023-03-13T13:12:58.544Z,64.67
2023-03-13T13:13:58.576Z,64.98
2023-03-13T13:14:58.542Z,65.21
2023-03-13T13:15:58.616Z,65.11
2023-03-13T13:16:58.518Z,65.51
2023-03-13T13:17:58.500Z,65.81
2023-03-13T13:19:02.802Z,66.22
2023-03-13T13:19:58.512Z,66.52
2023-03-13T13:20:58.476Z,65.95
2023-03-13T13:21:58.477Z,65.12
2023-03-13T13:22:58.456Z,64.81
2023-03-13T13:23:58.432Z,65.12
2023-03-13T13:24:58.423Z,65.42
2023-03-13T13:25:58.448Z,65.01
2023-03-13T13:26:58.420Z,65.42
2023-03-13T13:27:59.147Z,65.25
2023-03-13T13:28:58.412Z,65.25
2023-03-13T13:29:58.351Z,65.29
2023-03-13T13:30:58.489Z,64.95
2023-03-13T13:31:59.239Z,64.95
2023-03-13T13:32:58.393Z,65.06
2023-03-13T13:33:58.315Z,65.16
2023-03-13T13:34:58.302Z,64.45
2023-03-13T13:35:58.306Z,64.55
2023-03-13T13:36:58.303Z,65.16
2023-03-13T13:37:58.298Z,65.66
2023-03-13T13:38:58.252Z,65.56
2023-03-13T13:39:58.306Z,65.76
2023-03-13T13:40:58.461Z,65.86
2023-03-13T13:41:58.220Z,66.30
2023-03-13T13:42:58.257Z,66.42
2023-03-13T13:43:58.201Z,66.93
2023-03-13T13:44:58.411Z,67.16
2023-03-13T13:45:58.220Z,67.16
2023-03-13T13:46:58.162Z,66.86
2023-03-13T13:47:58.162Z,66.79
2023-03-13T13:48:58.159Z,66.79
2023-03-13T13:49:59.122Z,67.10
2023-03-13T13:50:58.122Z,67.23
2023-03-13T13:51:58.132Z,67.33
2023-03-13T13:52:58.105Z,67.23
2023-03-13T13:53:58.106Z,67.23
2023-03-13T13:54:58.082Z,67.33
2023-03-13T13:55:58.103Z,67.43
2023-03-13T13:56:58.101Z,67.73
2023-03-13T13:57:58.049Z,67.83
2023-03-13T13:58:58.045Z,68.17
2023-03-13T13:59:58.991Z,68.33
2023-03-13T14:00:58.045Z,68.37
2023-03-13T14:01:58.065Z,68.47
2023-03-13T14:02:57.988Z,68.67
2023-03-13T14:03:57.985Z,68.87
2023-03-13T14:04:58.096Z,68.77
2023-03-13T14:05:57.965Z,68.87
2023-03-13T14:06:57.966Z,68.98
2023-03-13T14:07:58.627Z,69.08
2023-03-13T14:08:57.927Z,69.28
2023-03-13T14:09:57.918Z,69.58
2023-03-13T14:10:59.400Z,69.78
2023-03-13T14:11:59.354Z,70.02
2023-03-13T14:12:59.335Z,70.12
2023-03-13T14:13:59.327Z,70.22
2023-03-13T14:14:57.874Z,70.32
2023-03-13T14:15:57.869Z,70.39
2023-03-13T14:16:57.905Z,70.49
2023-03-13T14:17:57.826Z,70.53
2023-03-13T14:18:59.265Z,70.53
2023-03-13T14:19:58.769Z,70.42
2023-03-13T14:20:57.799Z,70.53
2023-03-13T14:21:57.781Z,70.83
2023-03-13T14:23:00.674Z,70.93
2023-03-13T14:23:57.760Z,71.13
2023-03-13T14:24:57.760Z,71.23
2023-03-13T14:25:57.772Z,71.23
2023-03-13T14:26:57.723Z,71.33
2023-03-13T14:27:57.978Z,71.23
2023-03-13T14:28:57.718Z,71.03
2023-03-13T14:29:57.710Z,70.83
2023-03-13T14:31:01.536Z,70.42
2023-03-13T14:31:57.682Z,70.53
2023-03-13T14:32:57.739Z,70.42
2023-03-13T14:33:58.513Z,70.53
2023-03-13T14:34:57.641Z,70.73
2023-03-13T14:35:57.962Z,70.93
2023-03-13T14:37:14.818Z,71.13
2023-03-13T14:37:58.678Z,71.33
2023-03-13T14:38:57.638Z,71.53
2023-03-13T14:39:57.584Z,71.44
2023-03-13T14:40:57.565Z,71.67
2023-03-13T14:41:59.026Z,71.77
2023-03-13T14:42:57.568Z,71.97
2023-03-13T14:43:58.993Z,72.08
2023-03-13T14:44:59.737Z,72.28
2023-03-13T14:45:57.533Z,72.68
2023-03-13T14:46:59.054Z,74.50
2023-03-13T14:47:57.500Z,74.94
2023-03-13T14:48:57.474Z,75.45
2023-03-13T14:49:57.505Z,75.55
2023-03-13T14:51:08.842Z,75.79
2023-03-13T14:51:58.446Z,77.81
2023-03-13T14:52:57.416Z,81.15
2023-03-13T14:53:57.425Z,82.40
2023-03-13T14:54:57.430Z,82.75
2023-03-13T14:55:57.404Z,83.45
2023-03-13T14:56:57.390Z,82.64
2023-03-13T14:57:57.386Z,81.52
2023-03-13T14:58:57.366Z,82.14
2023-03-13T14:59:57.389Z,82.44
2023-03-13T15:00:57.423Z,81.43
2023-03-13T15:01:57.327Z,81.99
2023-03-13T15:02:57.314Z,82.20
2023-03-13T15:03:57.348Z,83.41
2023-03-13T15:04:57.319Z,81.18
2023-03-13T15:05:57.275Z,80.34
2023-03-13T15:06:58.094Z,80.13
2023-03-13T15:07:57.271Z,81.55
2023-03-13T15:08:57.268Z,79.83
2023-03-13T15:09:57.241Z,78.21
2023-03-13T15:10:58.193Z,78.08
2023-03-13T15:11:57.260Z,78.68
2023-03-13T15:12:57.250Z,79.08
2023-03-13T15:13:57.203Z,77.87
2023-03-13T15:14:57.272Z,77.17
2023-03-13T15:15:57.205Z,77.67
2023-03-13T15:16:57.160Z,76.05
2023-03-13T15:17:57.190Z,75.45
2023-03-13T15:18:57.148Z,75.34
2023-03-13T15:19:57.518Z,74.13
2023-03-13T15:20:57.119Z,73.02
2023-03-13T15:21:57.095Z,72.51
2023-03-13T15:22:57.093Z,72.31
2023-03-13T15:23:57.384Z,72.01
2023-03-13T15:25:06.126Z,72.11
2023-03-13T15:25:58.052Z,71.80
2023-03-13T15:26:57.033Z,71.37
2023-03-13T15:27:57.038Z,71.37
2023-03-13T15:28:57.018Z,70.96
2023-03-13T15:29:57.038Z,70.62
2023-03-13T15:30:57.466Z,70.53
2023-03-13T15:31:57.589Z,70.19
2023-03-13T15:32:57.023Z,70.29
2023-03-13T15:33:57.790Z,70.39
2023-03-13T15:34:57.328Z,70.39
2023-03-13T15:35:57.045Z,70.69
2023-03-13T15:36:56.956Z,70.39
2023-03-13T15:37:58.451Z,70.09
2023-03-13T15:38:56.910Z,70.02
2023-03-13T15:39:56.911Z,70.22
2023-03-13T15:40:56.876Z,70.12
2023-03-13T15:41:57.691Z,69.71
2023-03-13T15:42:58.380Z,69.71
2023-03-13T15:43:58.311Z,69.51
2023-03-13T15:44:56.911Z,69.31
2023-03-13T15:45:56.872Z,69.82
2023-03-13T15:46:56.836Z,69.92
2023-03-13T15:47:56.857Z,70.32
2023-03-13T15:48:56.870Z,70.56
2023-03-13T15:49:56.782Z,70.66
2023-03-13T15:50:56.782Z,70.66
2023-03-13T15:51:57.899Z,70.36
2023-03-13T15:52:56.758Z,70.15
2023-03-13T15:53:56.751Z,70.15
2023-03-13T15:54:57.710Z,70.25
2023-03-13T15:55:56.964Z,70.36
2023-03-13T15:56:58.163Z,70.05
2023-03-13T15:57:56.705Z,70.09
2023-03-13T15:58:56.964Z,70.09
2023-03-13T15:59:56.697Z,70.39
2023-03-13T16:00:56.672Z,70.49
2023-03-13T16:01:56.689Z,70.29
2023-03-13T16:02:56.692Z,70.39
2023-03-13T16:03:56.656Z,70.39
2023-03-13T16:04:58.107Z,70.29
2023-03-13T16:05:56.648Z,70.39
2023-03-13T16:06:56.911Z,70.59
2023-03-13T16:07:56.624Z,70.79
2023-03-13T16:08:56.573Z,71.00
2023-03-13T16:09:56.578Z,71.00
2023-03-13T16:10:56.547Z,71.00
2023-03-13T16:11:56.540Z,71.00
2023-03-13T16:12:56.521Z,71.00
2023-03-13T16:13:57.536Z,70.93
2023-03-13T16:14:56.567Z,71.03
2023-03-13T16:15:57.952Z,71.23
2023-03-13T16:16:56.564Z,71.23
2023-03-13T16:17:57.915Z,70.83
2023-03-13T16:19:00.622Z,70.73
2023-03-13T16:19:56.461Z,70.83
2023-03-13T16:20:56.441Z,70.62
2023-03-13T16:21:56.430Z,70.52
2023-03-13T16:22:56.449Z,70.62
2023-03-13T16:23:56.455Z,70.73
2023-03-13T16:24:56.404Z,70.73
2023-03-13T16:25:56.512Z,70.83
2023-03-13T16:26:57.832Z,71.03
2023-03-13T16:27:56.408Z,70.93
2023-03-13T16:28:56.383Z,70.73
2023-03-13T16:29:56.361Z,70.73
2023-03-13T16:30:56.353Z,70.22
2023-03-13T16:31:56.352Z,69.92
2023-03-13T16:32:56.352Z,70.15
2023-03-13T16:33:57.776Z,69.95
2023-03-13T16:34:57.141Z,69.95
2023-03-13T16:35:57.069Z,70.15
2023-03-13T16:36:57.710Z,70.36
2023-03-13T16:37:56.407Z,70.56
2023-03-13T16:38:56.234Z,70.56
2023-03-13T16:39:56.232Z,70.45
2023-03-13T16:40:56.237Z,70.56
2023-03-13T16:41:56.247Z,70.69
2023-03-13T16:42:57.653Z,70.69
2023-03-13T16:43:56.189Z,70.69
2023-03-13T16:44:56.157Z,70.79
2023-03-13T16:45:56.193Z,70.59
2023-03-13T16:47:05.642Z,70.49
2023-03-13T16:47:58.609Z,70.39
2023-03-13T16:48:56.122Z,70.29
2023-03-13T16:49:57.687Z,70.18
2023-03-13T16:50:58.117Z,70.18
2023-03-13T16:51:56.087Z,70.18
2023-03-13T16:52:56.100Z,70.18
2023-03-13T16:53:56.080Z,70.39
2023-03-13T16:54:56.105Z,70.39
2023-03-13T16:55:56.073Z,70.49
2023-03-13T16:56:56.047Z,70.59
2023-03-13T16:57:56.031Z,70.59
2023-03-13T16:58:56.044Z,70.42
2023-03-13T16:59:56.005Z,70.32
2023-03-13T17:01:56.983Z,70.21
2023-03-13T17:02:56.006Z,70.12
2023-03-13T17:03:55.998Z,70.12
2023-03-13T17:04:56.019Z,69.81
2023-03-13T17:05:56.372Z,69.92
2023-03-13T17:06:55.938Z,69.71
2023-03-13T17:07:55.948Z,69.71
2023-03-13T17:08:55.884Z,69.71
2023-03-13T17:09:55.891Z,69.81
2023-03-13T17:10:55.900Z,69.92
2023-03-13T17:11:55.853Z,70.01
2023-03-13T17:12:55.897Z,70.21
2023-03-13T17:13:56.064Z,70.35
2023-03-13T17:14:55.825Z,70.25
2023-03-13T17:15:55.917Z,70.25
2023-03-13T17:16:56.762Z,70.25
2023-03-13T17:17:55.797Z,70.25
2023-03-13T17:18:55.786Z,70.35
2023-03-13T17:19:56.566Z,70.45
2023-03-13T17:20:57.242Z,70.25
2023-03-13T17:21:57.214Z,70.05
2023-03-13T17:22:55.774Z,70.05
2023-03-13T17:23:55.736Z,70.15
2023-03-13T17:24:55.751Z,70.15
2023-03-13T17:25:55.710Z,70.15
2023-03-13T17:26:55.697Z,70.35
2023-03-13T17:27:55.698Z,70.35
2023-03-13T17:28:56.177Z,70.45
2023-03-13T17:29:55.659Z,70.45
2023-03-13T17:30:55.686Z,70.45
2023-03-13T17:31:55.641Z,70.56
2023-03-13T17:32:55.716Z,70.56
2023-03-13T17:33:55.613Z,70.56
2023-03-13T17:34:55.644Z,70.76
2023-03-13T17:35:56.574Z,70.76
2023-03-13T17:36:55.625Z,70.86
2023-03-13T17:37:55.568Z,71.00
2023-03-13T17:38:55.564Z,71.09
2023-03-13T17:39:55.547Z,71.20
2023-03-13T17:40:55.526Z,71.40
2023-03-13T17:41:55.520Z,71.50
2023-03-13T17:42:55.526Z,71.70
2023-03-13T17:43:56.331Z,71.80
2023-03-13T17:44:56.948Z,71.91
2023-03-13T17:45:55.811Z,72.11
2023-03-13T17:46:57.008Z,72.21
2023-03-13T17:47:55.527Z,72.45
2023-03-13T17:48:55.443Z,72.55
2023-03-13T17:49:55.468Z,72.75
2023-03-13T17:50:55.560Z,72.85
2023-03-13T17:51:56.982Z,73.06
2023-03-13T17:52:55.431Z,73.16
2023-03-13T17:53:55.457Z,73.26
2023-03-13T17:54:55.379Z,73.36
2023-03-13T17:55:55.398Z,73.46
2023-03-13T17:56:56.412Z,73.66
2023-03-13T17:57:55.353Z,73.77
2023-03-13T17:58:55.333Z,73.97
2023-03-13T17:59:55.337Z,74.07
2023-03-13T18:00:55.353Z,74.31
2023-03-13T18:01:55.317Z,74.41
2023-03-13T18:02:55.354Z,74.51
2023-03-13T18:03:55.344Z,74.71
2023-03-13T18:04:55.309Z,74.92
2023-03-13T18:05:55.291Z,75.12
2023-03-13T18:06:55.273Z,75.22
2023-03-13T18:07:55.256Z,75.32
2023-03-13T18:08:55.250Z,75.43